createdAt,value
2022-10-18T00:00:01.757Z,43.60
2022-10-18T00:02:28.649Z,38.08
2022-10-18T00:04:55.405Z,40.08
2022-10-18T00:07:22.166Z,41.13
2022-10-18T00:09:48.868Z,40.23
2022-10-18T00:12:15.616Z,37.65
2022-10-18T00:14:42.329Z,37.75
2022-10-18T00:17:09.100Z,43.13
2022-10-18T00:19:35.757Z,37.17
2022-10-18T00:22:02.460Z,40.67
2022-10-18T00:24:29.142Z,41.78
2022-10-18T00:26:55.803Z,35.80
2022-10-18T00:29:22.495Z,41.00
2022-10-18T00:31:49.162Z,40.47
2022-10-18T00:34:16.966Z,44.13
2022-10-18T00:36:44.685Z,42.17
2022-10-18T00:39:18.448Z,43.45
2022-10-18T00:41:46.035Z,39.35
2022-10-18T00:44:12.643Z,39.55
2022-10-18T00:46:48.859Z,38.03
2022-10-18T00:49:31.172Z,39.03
2022-10-18T00:52:09.120Z,38.97
2022-10-18T00:54:39.018Z,39.73
2022-10-18T00:57:06.318Z,35.75
2022-10-18T00:59:33.879Z,40.13
2022-10-18T01:02:01.688Z,42.53
2022-10-18T01:04:28.662Z,38.13
2022-10-18T01:07:16.376Z,44.97
2022-10-18T01:09:56.691Z,45.53
2022-10-18T01:13:01.329Z,41.10
2022-10-18T01:15:41.094Z,47.50
2022-10-18T01:18:22.738Z,40.07
2022-10-18T01:21:18.647Z,39.83
2022-10-18T01:24:11.167Z,38.83
2022-10-18T01:27:05.086Z,38.33
2022-10-18T01:29:44.701Z,41.00
2022-10-18T01:32:26.461Z,38.77
2022-10-18T01:34:59.287Z,46.33
2022-10-18T01:37:27.715Z,39.53
2022-10-18T01:39:57.056Z,41.37
2022-10-18T01:42:24.675Z,40.17
2022-10-18T01:44:53.593Z,46.47
2022-10-18T01:47:21.552Z,39.60
2022-10-18T01:49:48.312Z,41.97
2022-10-18T01:52:16.313Z,43.23
2022-10-18T01:54:51.094Z,37.47
2022-10-18T01:57:32.204Z,40.33
2022-10-18T02:00:02.051Z,41.93
2022-10-18T02:02:40.776Z,40.90
2022-10-18T02:05:19.625Z,41.60
2022-10-18T02:08:22.941Z,43.40
2022-10-18T02:10:57.289Z,40.20
2022-10-18T02:13:27.387Z,37.37
2022-10-18T02:15:59.860Z,40.67
2022-10-18T02:18:36.974Z,38.77
2022-10-18T02:21:06.897Z,38.20
2022-10-18T02:23:34.889Z,34.40
2022-10-18T02:26:02.124Z,35.50
2022-10-18T02:28:28.976Z,35.13
2022-10-18T02:31:20.384Z,41.37
2022-10-18T02:34:00.664Z,41.13
2022-10-18T02:36:37.798Z,37.00
2022-10-18T02:39:11.033Z,40.67
2022-10-18T02:41:38.078Z,38.90
2022-10-18T02:44:04.861Z,43.33
2022-10-18T02:46:31.795Z,42.07
2022-10-18T02:48:58.477Z,37.63
2022-10-18T02:51:25.253Z,41.30
2022-10-18T02:53:51.914Z,37.70
2022-10-18T02:56:18.671Z,41.43
2022-10-18T02:58:45.331Z,35.80
2022-10-18T03:01:12.113Z,34.87
2022-10-18T03:03:38.860Z,34.30
2022-10-18T03:06:05.795Z,35.53
2022-10-18T03:08:32.448Z,39.90
2022-10-18T03:10:59.132Z,36.97
2022-10-18T03:13:26.066Z,40.53
2022-10-18T03:15:52.752Z,38.20
2022-10-18T03:18:19.429Z,34.47
2022-10-18T03:20:46.276Z,38.70
2022-10-18T03:23:12.925Z,41.83
2022-10-18T03:25:41.661Z,39.20
2022-10-18T03:28:11.178Z,38.23
2022-10-18T03:30:38.950Z,34.70
2022-10-18T03:33:06.747Z,34.20
2022-10-18T03:35:33.442Z,35.90
2022-10-18T03:38:00.173Z,38.10
2022-10-18T03:40:26.923Z,41.30
2022-10-18T03:42:53.650Z,38.70
2022-10-18T03:45:20.328Z,35.17
2022-10-18T03:47:47.010Z,32.50
2022-10-18T03:50:13.766Z,43.40
2022-10-18T03:52:40.459Z,42.27
2022-10-18T03:55:07.598Z,40.67
2022-10-18T03:57:34.331Z,48.97
2022-10-18T04:00:01.158Z,45.60
2022-10-18T04:02:27.943Z,41.97
2022-10-18T04:04:54.644Z,44.83
2022-10-18T04:07:21.319Z,48.03
2022-10-18T04:09:47.977Z,48.73
2022-10-18T04:12:14.664Z,40.43
2022-10-18T04:14:41.358Z,45.00
2022-10-18T04:17:08.235Z,43.47
2022-10-18T04:19:34.928Z,48.40
2022-10-18T04:22:01.903Z,46.77
2022-10-18T04:24:28.637Z,48.80
2022-10-18T04:26:55.381Z,43.07
2022-10-18T04:29:22.159Z,44.83
2022-10-18T04:31:48.912Z,41.73
2022-10-18T04:34:15.787Z,42.47
2022-10-18T04:36:42.475Z,45.50
2022-10-18T04:39:09.229Z,46.93
2022-10-18T04:41:36.205Z,43.07
2022-10-18T04:44:02.917Z,45.70
2022-10-18T04:46:29.572Z,44.63
2022-10-18T04:48:56.353Z,44.37
2022-10-18T04:51:23.149Z,44.83
2022-10-18T04:53:49.809Z,44.80
2022-10-18T04:56:16.664Z,45.70
2022-10-18T04:58:43.343Z,44.10
2022-10-18T05:01:10.006Z,49.57
2022-10-18T05:03:36.807Z,40.70
2022-10-18T05:06:03.704Z,44.03
2022-10-18T05:08:31.890Z,44.10
2022-10-18T05:10:59.016Z,38.03
2022-10-18T05:13:26.180Z,40.67
2022-10-18T05:15:52.891Z,40.77
2022-10-18T05:18:20.024Z,41.40
2022-10-18T05:20:47.338Z,39.67
2022-10-18T05:23:14.025Z,37.37
2022-10-18T05:25:41.836Z,40.87
2022-10-18T05:28:15.644Z,36.60
2022-10-18T05:30:54.091Z,38.87
2022-10-18T05:33:20.766Z,36.83
2022-10-18T05:35:47.417Z,38.00
2022-10-18T05:38:14.058Z,41.90
2022-10-18T05:40:40.740Z,36.73
2022-10-18T05:43:07.508Z,36.20
2022-10-18T05:45:34.187Z,35.03
2022-10-18T05:48:01.155Z,35.23
2022-10-18T05:50:27.952Z,33.00
2022-10-18T05:53:06.890Z,37.80
2022-10-18T05:55:39.474Z,35.77
2022-10-18T05:58:06.336Z,39.50
2022-10-18T06:00:33.195Z,36.80
2022-10-18T06:03:00.555Z,39.93
2022-10-18T06:05:27.858Z,41.57
2022-10-18T06:07:55.958Z,45.27
2022-10-18T06:10:22.895Z,48.70
2022-10-18T06:12:49.629Z,46.80
2022-10-18T06:15:16.452Z,51.00
2022-10-18T06:17:43.221Z,50.03
2022-10-18T06:20:10.180Z,47.57
2022-10-18T06:22:36.903Z,53.73
2022-10-18T06:25:03.690Z,66.00
2022-10-18T06:27:31.955Z,54.87
2022-10-18T06:29:59.047Z,56.50
2022-10-18T06:32:25.804Z,47.40
2022-10-18T06:34:52.478Z,49.13
2022-10-18T06:37:19.175Z,53.27
2022-10-18T06:39:45.903Z,45.22
2022-10-18T06:42:12.568Z,46.13
2022-10-18T06:44:39.220Z,46.35
2022-10-18T06:47:07.802Z,46.05
2022-10-18T06:49:34.446Z,43.53
2022-10-18T06:52:01.225Z,45.10
2022-10-18T06:54:27.890Z,45.30
2022-10-18T06:56:58.220Z,41.03
2022-10-18T06:59:27.504Z,41.35
2022-10-18T07:01:57.303Z,52.08
2022-10-18T07:04:24.140Z,45.47
2022-10-18T07:06:53.713Z,41.25
2022-10-18T07:09:20.437Z,40.95
2022-10-18T07:11:47.128Z,42.40
2022-10-18T07:14:16.351Z,43.72
2022-10-18T07:16:43.312Z,40.17
2022-10-18T07:19:10.077Z,41.67
2022-10-18T07:21:36.824Z,43.20
2022-10-18T07:24:03.667Z,44.25
2022-10-18T07:26:33.099Z,36.88
2022-10-18T07:29:08.113Z,39.20
2022-10-18T07:31:35.949Z,38.33
2022-10-18T07:34:05.077Z,38.75
2022-10-18T07:36:32.068Z,40.28
2022-10-18T07:38:59.670Z,37.80
2022-10-18T07:41:26.539Z,38.58
2022-10-18T07:43:53.745Z,44.03
2022-10-18T07:46:21.999Z,34.85
2022-10-18T07:48:49.491Z,42.40
2022-10-18T07:51:16.765Z,35.25
2022-10-18T07:53:43.489Z,46.85
2022-10-18T07:56:16.309Z,39.20
2022-10-18T07:58:44.687Z,35.85
2022-10-18T08:01:12.534Z,33.72
2022-10-18T08:03:39.535Z,34.53
2022-10-18T08:06:09.564Z,38.03
2022-10-18T08:08:37.363Z,36.92
2022-10-18T08:11:06.255Z,33.50
2022-10-18T08:13:33.388Z,31.25
2022-10-18T08:16:05.793Z,36.63
2022-10-18T08:18:32.748Z,28.00
2022-10-18T08:21:00.834Z,33.45
2022-10-18T08:23:27.696Z,36.60
2022-10-18T08:25:54.487Z,36.47
2022-10-18T08:28:21.374Z,31.55
2022-10-18T08:30:48.214Z,31.30
2022-10-18T08:33:14.945Z,31.45
2022-10-18T08:35:41.619Z,32.22
2022-10-18T08:38:16.396Z,31.45
2022-10-18T08:40:45.013Z,30.35
2022-10-18T08:43:38.670Z,33.67
2022-10-18T08:46:05.658Z,32.60
2022-10-18T08:48:59.586Z,29.75
2022-10-18T08:51:42.341Z,29.92
2022-10-18T08:54:44.333Z,29.63
2022-10-18T08:57:18.058Z,30.83
2022-10-18T08:59:44.819Z,27.40
2022-10-18T09:02:28.449Z,33.28
2022-10-18T09:05:15.988Z,32.63
2022-10-18T09:08:01.229Z,31.70
2022-10-18T09:10:38.695Z,31.35
2022-10-18T09:13:44.262Z,28.90
2022-10-18T09:16:20.530Z,27.75
2022-10-18T09:19:21.394Z,31.27
2022-10-18T09:21:58.235Z,29.08
2022-10-18T09:24:39.598Z,31.27
2022-10-18T09:27:15.507Z,32.30
2022-10-18T09:29:58.303Z,27.02
2022-10-18T09:32:56.734Z,24.25
2022-10-18T09:35:28.899Z,31.58
2022-10-18T09:38:03.438Z,28.58
2022-10-18T09:40:36.299Z,32.40
2022-10-18T09:43:16.131Z,31.40
2022-10-18T09:45:47.729Z,29.17
2022-10-18T09:48:34.433Z,34.45
2022-10-18T09:51:12.139Z,37.83
2022-10-18T09:54:06.616Z,32.08
2022-10-18T09:56:41.780Z,29.67
2022-10-18T09:59:43.514Z,32.03
2022-10-18T10:02:14.655Z,34.30
2022-10-18T10:04:41.465Z,31.15
2022-10-18T10:07:20.468Z,31.35
2022-10-18T10:09:55.309Z,34.55
2022-10-18T10:12:36.412Z,34.45
2022-10-18T10:15:28.137Z,31.92
2022-10-18T10:18:02.425Z,29.20
2022-10-18T10:20:57.286Z,32.08
2022-10-18T10:23:39.030Z,34.05
2022-10-18T10:26:23.170Z,37.08
2022-10-18T10:28:50.552Z,27.05
2022-10-18T10:31:34.072Z,29.42
2022-10-18T10:34:06.843Z,28.23
2022-10-18T10:36:34.311Z,23.88
2022-10-18T10:39:18.393Z,22.30
2022-10-18T10:42:00.124Z,25.27
2022-10-18T10:44:32.836Z,26.67
2022-10-18T10:46:59.957Z,26.65
2022-10-18T10:49:41.015Z,26.08
2022-10-18T10:52:33.730Z,19.85
2022-10-18T10:55:33.978Z,19.02
2022-10-18T10:57:51.332Z,17.77
2022-10-18T11:00:42.981Z,20.42
2022-10-18T11:03:34.316Z,17.25
2022-10-18T11:06:02.032Z,17.10
2022-10-18T11:08:38.209Z,11.82
2022-10-18T11:11:23.042Z,11.27
2022-10-18T11:14:13.756Z,11.13
2022-10-18T11:16:58.815Z,15.35
2022-10-18T11:19:44.347Z,10.93
2022-10-18T11:22:18.907Z,8.95
2022-10-18T11:24:45.914Z,9.65
2022-10-18T11:27:29.155Z,9.20
2022-10-18T11:30:14.444Z,9.48
2022-10-18T11:33:06.882Z,7.45
2022-10-18T11:35:50.425Z,8.40
2022-10-18T11:38:30.602Z,7.38
2022-10-18T11:41:27.898Z,7.03
2022-10-18T11:44:04.216Z,8.35
2022-10-18T11:46:51.154Z,8.48
2022-10-18T11:50:14.541Z,7.70
2022-10-18T11:52:58.968Z,9.80
2022-10-18T11:55:54.830Z,7.35
2022-10-18T11:58:46.187Z,14.25
2022-10-18T12:01:24.736Z,9.63
2022-10-18T12:04:12.890Z,8.20
2022-10-18T12:06:42.910Z,11.23
2022-10-18T12:09:33.215Z,8.85
2022-10-18T12:12:06.573Z,13.23
2022-10-18T12:14:37.939Z,15.60
2022-10-18T12:17:51.104Z,13.38
2022-10-18T12:20:14.712Z,12.32
2022-10-18T12:22:56.054Z,13.90
2022-10-18T12:25:23.369Z,11.30
2022-10-18T12:27:56.795Z,14.23
2022-10-18T12:30:32.053Z,8.63
2022-10-18T12:33:28.149Z,11.52
2022-10-18T12:36:23.262Z,9.23
2022-10-18T12:39:01.868Z,9.00
2022-10-18T12:41:35.489Z,10.63
2022-10-18T12:44:21.498Z,11.27
2022-10-18T12:46:56.999Z,10.25
2022-10-18T12:49:31.577Z,7.80
2022-10-18T12:52:01.768Z,8.07
2022-10-18T12:54:35.105Z,8.07
2022-10-18T12:57:03.829Z,9.63
2022-10-18T12:59:30.541Z,9.40
2022-10-18T13:01:57.204Z,9.25
2022-10-18T13:04:33.644Z,12.32
2022-10-18T13:07:07.866Z,12.45
2022-10-18T13:09:40.417Z,13.13
2022-10-18T13:12:10.055Z,12.85
2022-10-18T13:15:05.696Z,12.50
2022-10-18T13:17:47.849Z,7.45
2022-10-18T13:20:42.983Z,6.85
2022-10-18T13:23:37.110Z,7.40
2022-10-18T13:26:13.673Z,7.47
2022-10-18T13:29:11.889Z,9.50
2022-10-18T13:31:44.951Z,9.13
2022-10-18T13:34:23.999Z,7.22
2022-10-18T13:37:03.248Z,6.72
2022-10-18T13:39:31.414Z,7.78
2022-10-18T13:41:58.241Z,8.75
2022-10-18T13:44:40.235Z,6.95
2022-10-18T13:47:07.110Z,7.97
2022-10-18T13:49:39.985Z,6.70
2022-10-18T13:52:18.705Z,8.73
2022-10-18T13:55:12.850Z,6.95
2022-10-18T13:57:59.588Z,9.57
2022-10-18T14:00:51.007Z,7.93
2022-10-18T14:03:58.045Z,10.43
2022-10-18T14:06:42.859Z,12.50
2022-10-18T14:09:26.027Z,15.85
2022-10-18T14:12:17.073Z,14.95
2022-10-18T14:14:45.590Z,14.77
2022-10-18T14:17:36.926Z,14.00
2022-10-18T14:20:15.582Z,15.80
2022-10-18T14:22:53.842Z,18.95
2022-10-18T14:25:36.137Z,13.38
2022-10-18T14:28:31.259Z,18.98
2022-10-18T14:31:06.544Z,27.45
2022-10-18T14:33:45.533Z,32.35
2022-10-18T14:36:21.070Z,62.15
2022-10-18T14:39:02.570Z,65.95
2022-10-18T14:41:31.544Z,62.13
2022-10-18T14:44:19.451Z,51.20
2022-10-18T14:46:52.428Z,42.35
2022-10-18T14:49:20.863Z,49.25
2022-10-18T14:51:52.279Z,42.67
2022-10-18T14:54:24.938Z,41.00
2022-10-18T14:56:54.589Z,29.95
2022-10-18T14:59:24.902Z,30.65
2022-10-18T15:02:02.199Z,23.23
2022-10-18T15:04:35.419Z,18.85
2022-10-18T15:07:07.700Z,19.10
2022-10-18T15:09:35.897Z,17.30
2022-10-18T15:12:05.572Z,17.45
2022-10-18T15:14:32.976Z,22.88
2022-10-18T15:17:03.662Z,18.27
2022-10-18T15:19:34.609Z,20.02
2022-10-18T15:25:17.852Z,20.92
2022-10-18T15:27:48.442Z,19.42
2022-10-18T15:30:28.045Z,17.67
2022-10-18T15:33:03.231Z,19.40
2022-10-18T15:35:35.297Z,19.67
2022-10-18T15:38:15.622Z,18.45
2022-10-18T15:40:43.262Z,14.98
2022-10-18T15:43:35.066Z,15.52
2022-10-18T15:46:06.712Z,14.73
2022-10-18T15:48:41.090Z,13.55
2022-10-18T15:51:41.298Z,12.68
2022-10-18T15:54:18.595Z,12.65
2022-10-18T15:56:46.011Z,12.25
2022-10-18T15:59:27.686Z,14.50
2022-10-18T16:01:54.955Z,12.70
2022-10-18T16:04:26.097Z,18.67
2022-10-18T16:06:54.307Z,21.30
2022-10-18T16:09:22.363Z,19.63
2022-10-18T16:11:56.636Z,22.05
2022-10-18T16:14:25.743Z,15.88
2022-10-18T16:16:55.202Z,18.13
2022-10-18T16:19:22.807Z,32.72
2022-10-18T16:21:50.743Z,36.00
2022-10-18T16:24:17.824Z,33.92
2022-10-18T16:26:44.747Z,24.15
2022-10-18T16:29:15.245Z,17.05
2022-10-18T16:31:42.431Z,13.57
2022-10-18T16:34:11.236Z,12.40
2022-10-18T16:36:37.977Z,14.90
2022-10-18T16:39:08.175Z,11.63
2022-10-18T16:41:34.859Z,11.10
2022-10-18T16:44:01.629Z,12.93
2022-10-18T16:46:31.317Z,10.90
2022-10-18T16:48:58.581Z,20.17
2022-10-18T16:51:25.642Z,15.95
2022-10-18T16:53:56.148Z,14.48
2022-10-18T16:56:26.844Z,12.30
2022-10-18T16:58:54.170Z,15.25
2022-10-18T17:01:22.590Z,12.43
2022-10-18T17:03:52.135Z,13.73
2022-10-18T17:06:26.692Z,10.60
2022-10-18T17:08:54.936Z,11.52
2022-10-18T17:11:23.966Z,10.90
2022-10-18T17:13:50.831Z,15.75
2022-10-18T17:16:32.848Z,9.63
2022-10-18T17:19:02.623Z,7.53
2022-10-18T17:21:30.153Z,8.65
2022-10-18T17:24:01.240Z,8.27
2022-10-18T17:26:29.747Z,12.10
2022-10-18T17:29:04.309Z,7.47
2022-10-18T17:31:32.047Z,10.25
2022-10-18T17:34:01.559Z,18.10
2022-10-18T17:36:29.769Z,19.48
2022-10-18T17:38:56.874Z,17.90
2022-10-18T17:41:23.590Z,22.83
2022-10-18T17:43:50.389Z,19.52
2022-10-18T17:46:18.085Z,26.90
2022-10-18T17:48:45.348Z,19.88
2022-10-18T17:51:14.507Z,18.90
2022-10-18T17:53:41.247Z,17.65
2022-10-18T17:56:08.439Z,19.30
2022-10-18T17:58:35.473Z,15.10
2022-10-18T18:01:16.836Z,13.17
2022-10-18T18:03:44.092Z,11.03
2022-10-18T18:06:21.145Z,12.20
2022-10-18T18:08:49.252Z,16.20
2022-10-18T18:11:17.145Z,12.57
2022-10-18T18:13:43.803Z,11.37
2022-10-18T18:16:12.997Z,14.20
2022-10-18T18:18:39.945Z,16.53
2022-10-18T18:21:06.647Z,14.10
2022-10-18T18:23:33.334Z,12.80
2022-10-18T18:26:00.409Z,17.45
2022-10-18T18:28:27.290Z,12.60
2022-10-18T18:30:54.076Z,14.77
2022-10-18T18:33:20.801Z,16.75
2022-10-18T18:35:58.371Z,13.35
2022-10-18T18:38:25.915Z,12.73
2022-10-18T18:41:07.311Z,14.43
2022-10-18T18:43:34.700Z,13.57
2022-10-18T18:46:01.920Z,20.30
2022-10-18T18:48:30.967Z,20.20
2022-10-18T18:50:57.747Z,16.07
2022-10-18T18:53:28.554Z,18.40
2022-10-18T18:56:05.605Z,14.90
2022-10-18T18:58:34.622Z,16.02
2022-10-18T19:01:07.925Z,20.52
2022-10-18T19:03:34.968Z,20.73
2022-10-18T19:06:06.943Z,18.77
2022-10-18T19:08:36.796Z,20.25
2022-10-18T19:11:08.040Z,17.90
2022-10-18T19:13:36.030Z,16.05
2022-10-18T19:16:33.079Z,20.50
2022-10-18T19:19:10.290Z,17.13
2022-10-18T19:21:45.870Z,14.20
2022-10-18T19:24:13.699Z,16.90
2022-10-18T19:26:45.407Z,21.47
2022-10-18T19:29:13.767Z,15.70
2022-10-18T19:31:40.945Z,18.23
2022-10-18T19:34:10.758Z,19.47
2022-10-18T19:36:38.054Z,22.30
2022-10-18T19:39:06.435Z,18.37
2022-10-18T19:41:33.891Z,19.63
2022-10-18T19:44:00.707Z,20.97
2022-10-18T19:46:27.393Z,21.40
2022-10-18T19:48:54.281Z,19.07
2022-10-18T19:51:24.016Z,19.10
2022-10-18T19:53:52.350Z,23.07
2022-10-18T19:56:21.263Z,19.80
2022-10-18T19:58:48.872Z,24.13
2022-10-18T20:01:16.887Z,22.57
2022-10-18T20:03:44.579Z,23.63
2022-10-18T20:06:11.482Z,24.83
2022-10-18T20:08:39.219Z,26.20
2022-10-18T20:11:12.711Z,23.97
2022-10-18T20:13:39.948Z,22.20
2022-10-18T20:16:09.012Z,26.60
2022-10-18T20:18:39.081Z,24.80
2022-10-18T20:21:07.385Z,21.13
2022-10-18T20:23:38.684Z,25.87
2022-10-18T20:26:19.551Z,22.80
2022-10-18T20:28:49.020Z,25.20
2022-10-18T20:31:18.500Z,22.87
2022-10-18T20:33:47.079Z,21.37
2022-10-18T20:36:16.900Z,18.93
2022-10-18T20:38:46.239Z,21.17
2022-10-18T20:41:16.718Z,21.80
2022-10-18T20:43:44.468Z,23.17
2022-10-18T20:46:11.608Z,22.77
2022-10-18T20:48:41.297Z,25.73
2022-10-18T20:51:12.733Z,23.57
2022-10-18T20:53:40.625Z,17.87
2022-10-18T20:56:13.613Z,20.13
2022-10-18T20:58:42.070Z,24.00
2022-10-18T21:01:19.488Z,25.17
2022-10-18T21:03:48.061Z,25.33
2022-10-18T21:06:16.092Z,24.73
2022-10-18T21:08:43.809Z,25.40
2022-10-18T21:11:11.713Z,25.70
2022-10-18T21:13:40.920Z,23.17
2022-10-18T21:16:08.508Z,22.87
2022-10-18T21:18:36.852Z,30.90
2022-10-18T21:21:15.729Z,23.77
2022-10-18T21:23:42.890Z,23.60
2022-10-18T21:26:15.467Z,25.00
2022-10-18T21:28:42.421Z,21.67
2022-10-18T21:31:12.738Z,27.73
2022-10-18T21:33:40.702Z,24.37
2022-10-18T21:36:08.496Z,25.77
2022-10-18T21:38:35.328Z,23.57
2022-10-18T21:41:02.255Z,23.57
2022-10-18T21:43:28.961Z,22.33
2022-10-18T21:46:00.101Z,23.50
2022-10-18T21:48:27.888Z,21.50
2022-10-18T21:50:55.042Z,22.30
2022-10-18T21:53:21.862Z,22.37
2022-10-18T21:55:49.106Z,21.60
2022-10-18T21:58:15.803Z,22.10
2022-10-18T22:00:42.584Z,21.83
2022-10-18T22:03:13.324Z,21.20
2022-10-18T22:05:40.287Z,26.53
2022-10-18T22:08:07.649Z,25.57
2022-10-18T22:10:34.638Z,24.60
2022-10-18T22:13:01.808Z,25.20
2022-10-18T22:15:29.186Z,29.23
2022-10-18T22:17:58.888Z,21.57
2022-10-18T22:20:25.579Z,26.13
2022-10-18T22:22:54.043Z,23.10
2022-10-18T22:25:20.852Z,25.87
2022-10-18T22:27:47.568Z,21.23
2022-10-18T22:30:14.374Z,21.90
2022-10-18T22:32:41.191Z,20.83
2022-10-18T22:35:08.030Z,19.33
2022-10-18T22:37:34.961Z,18.70
2022-10-18T22:40:05.723Z,22.07
2022-10-18T22:45:04.635Z,19.33
2022-10-18T22:47:32.327Z,21.07
2022-10-18T22:49:59.255Z,24.80
2022-10-18T22:52:25.930Z,23.77
2022-10-18T22:54:52.653Z,25.40
2022-10-18T22:57:19.491Z,26.53
2022-10-18T22:59:46.488Z,26.70
2022-10-18T23:02:13.221Z,28.00
2022-10-18T23:04:39.917Z,28.03
2022-10-18T23:07:06.602Z,25.60
2022-10-18T23:09:33.410Z,32.67
2022-10-18T23:12:00.104Z,27.03
2022-10-18T23:14:26.962Z,32.53
2022-10-18T23:16:53.661Z,32.87
2022-10-18T23:19:20.513Z,31.47
2022-10-18T23:21:47.368Z,26.83
2022-10-18T23:24:14.045Z,26.97
2022-10-18T23:26:40.909Z,32.50
2022-10-18T23:29:08.448Z,29.87
2022-10-18T23:31:35.217Z,35.13
2022-10-18T23:34:04.712Z,25.60
2022-10-18T23:36:32.687Z,30.90
2022-10-18T23:38:59.514Z,24.60
2022-10-18T23:41:26.694Z,24.13
2022-10-18T23:43:53.560Z,33.07
2022-10-18T23:46:20.887Z,28.90
2022-10-18T23:48:48.340Z,24.13
2022-10-18T23:51:16.012Z,28.07
2022-10-18T23:53:43.249Z,27.70
2022-10-18T23:56:15.298Z,33.23
2022-10-18T23:58:43.440Z,26.47
